createdAt,value
2018-09-08T00:00:12.407Z,32.8
2018-09-08T00:01:14.864Z,32.8
2018-09-08T00:02:17.302Z,33
2018-09-08T00:03:19.779Z,32.9
2018-09-08T00:04:22.234Z,32.9
2018-09-08T00:05:24.665Z,32.7
2018-09-08T00:06:27.100Z,33
2018-09-08T00:07:29.549Z,32.8
2018-09-08T00:08:32.029Z,32.9
2018-09-08T00:09:34.476Z,32.8
2018-09-08T00:10:36.904Z,32.8
2018-09-08T00:11:39.340Z,33
2018-09-08T00:12:41.782Z,32.9
2018-09-08T00:13:44.229Z,33
2018-09-08T00:14:46.663Z,33.1
2018-09-08T00:15:49.103Z,33
2018-09-08T00:16:51.543Z,33
2018-09-08T00:17:53.991Z,33
2018-09-08T00:18:56.431Z,32.9
2018-09-08T00:19:58.903Z,32.9
2018-09-08T00:21:01.345Z,32.9
2018-09-08T00:22:03.782Z,33
2018-09-08T00:23:06.208Z,33
2018-09-08T00:24:08.643Z,33
2018-09-08T00:25:11.082Z,33
2018-09-08T00:26:13.543Z,32.9
2018-09-08T00:27:15.693Z,32.9
2018-09-08T00:28:18.123Z,33
2018-09-08T00:29:20.551Z,33
2018-09-08T00:30:23.004Z,33
2018-09-08T00:31:25.458Z,33
2018-09-08T00:32:27.900Z,33
2018-09-08T00:33:30.058Z,33.1
2018-09-08T00:34:32.495Z,33
2018-09-08T00:35:34.943Z,33
2018-09-08T00:36:37.354Z,33.1
2018-09-08T00:37:39.838Z,33.2
2018-09-08T00:38:42.271Z,33.1
2018-09-08T00:39:44.710Z,33
2018-09-08T00:40:47.150Z,33
2018-09-08T00:41:49.664Z,33
2018-09-08T00:42:52.094Z,33
2018-09-08T00:43:54.527Z,33
2018-09-08T00:44:56.958Z,33
2018-09-08T00:45:59.638Z,33
2018-09-08T00:47:02.087Z,33
2018-09-08T00:48:04.520Z,33
2018-09-08T00:49:06.960Z,33.1
2018-09-08T00:50:09.390Z,33
2018-09-08T00:51:11.834Z,33.1
2018-09-08T00:52:14.000Z,33.1
2018-09-08T00:53:16.442Z,33.1
2018-09-08T00:54:18.877Z,33.1
2018-09-08T00:55:21.332Z,33
2018-09-08T00:56:23.765Z,33
2018-09-08T00:57:26.193Z,33
2018-09-08T00:58:28.624Z,33.1
2018-09-08T00:59:31.070Z,33
2018-09-08T01:00:33.512Z,33.1
2018-09-08T01:01:35.944Z,33
2018-09-08T01:02:38.397Z,33
2018-09-08T01:03:40.956Z,33.1
2018-09-08T01:04:43.457Z,33.1
2018-09-08T01:05:45.884Z,33.1
2018-09-08T01:06:48.056Z,33.2
2018-09-08T01:07:50.495Z,33.1
2018-09-08T01:08:52.650Z,33.1
2018-09-08T01:09:55.085Z,33
2018-09-08T01:10:57.511Z,33.1
2018-09-08T01:11:59.955Z,33.1
2018-09-08T01:13:02.384Z,33.1
2018-09-08T01:14:04.513Z,33.1
2018-09-08T01:15:06.394Z,33
2018-09-08T01:16:08.818Z,33.1
2018-09-08T01:17:11.243Z,33
2018-09-08T01:18:13.681Z,33.1
2018-09-08T01:19:16.122Z,33.1
2018-09-08T01:20:18.570Z,33.2
2018-09-08T01:21:20.730Z,33
2018-09-08T01:22:23.164Z,33.1
2018-09-08T01:23:25.630Z,33
2018-09-08T01:24:28.075Z,33
2018-09-08T01:25:30.229Z,33
2018-09-08T01:26:32.684Z,33
2018-09-08T01:27:35.123Z,33.1
2018-09-08T01:28:37.572Z,33.1
2018-09-08T01:29:40.000Z,33.2
2018-09-08T01:30:42.430Z,33.1
2018-09-08T01:31:44.862Z,33.2
2018-09-08T01:32:47.294Z,33.2
2018-09-08T01:33:49.734Z,33.1
2018-09-08T01:34:52.172Z,33.3
2018-09-08T01:35:54.603Z,33.1
2018-09-08T01:36:57.048Z,33.1
2018-09-08T01:37:59.219Z,33.1
2018-09-08T01:39:01.650Z,33.1
2018-09-08T01:40:04.104Z,33.1
2018-09-08T01:41:06.537Z,33.2
2018-09-08T01:42:08.983Z,33.1
2018-09-08T01:43:11.411Z,33.1
2018-09-08T01:44:13.881Z,33.1
2018-09-08T01:45:16.315Z,33.1
2018-09-08T01:46:18.764Z,33.3
2018-09-08T01:47:21.194Z,33.1
2018-09-08T01:48:23.647Z,33.2
2018-09-08T01:49:26.083Z,33.3
2018-09-08T01:50:28.523Z,33.2
2018-09-08T01:51:30.686Z,33.1
2018-09-08T01:52:33.134Z,33.2
2018-09-08T01:53:35.574Z,33.2
2018-09-08T01:54:37.735Z,33.2
2018-09-08T01:55:39.902Z,33.3
2018-09-08T01:56:42.342Z,33.2
2018-09-08T01:57:44.774Z,33.2
2018-09-08T01:58:47.224Z,33.2
2018-09-08T01:59:49.665Z,33.1
2018-09-08T02:00:52.106Z,33.2
2018-09-08T02:01:54.241Z,33.2
2018-09-08T02:02:56.680Z,33.2
2018-09-08T02:03:58.846Z,33.1
2018-09-08T02:05:01.306Z,33.2
2018-09-08T02:06:03.738Z,33.1
2018-09-08T02:07:06.173Z,33.1
2018-09-08T02:08:08.616Z,33.2
2018-09-08T02:09:11.060Z,33.1
2018-09-08T02:10:13.491Z,33.1
2018-09-08T02:11:15.930Z,33.2
2018-09-08T02:12:18.352Z,33.3
2018-09-08T02:13:20.794Z,33.1
2018-09-08T02:14:23.229Z,33.1
2018-09-08T02:15:25.382Z,33.1
2018-09-08T02:16:27.826Z,33.3
2018-09-08T02:17:30.254Z,33.2
2018-09-08T02:18:32.694Z,33.2
2018-09-08T02:19:34.862Z,33.4
2018-09-08T02:20:37.295Z,33.1
2018-09-08T02:21:39.472Z,33.1
2018-09-08T02:22:41.935Z,33.2
2018-09-08T02:23:44.464Z,33.3
2018-09-08T02:24:46.900Z,33.3
2018-09-08T02:25:49.345Z,33.3
2018-09-08T02:26:51.785Z,33.2
2018-09-08T02:27:54.216Z,33.1
2018-09-08T02:28:56.649Z,33.1
2018-09-08T02:29:59.082Z,33.3
2018-09-08T02:31:01.522Z,33.2
2018-09-08T02:32:03.971Z,33.3
2018-09-08T02:33:06.401Z,33.3
2018-09-08T02:34:08.837Z,33.1
2018-09-08T02:35:11.003Z,33.1
2018-09-08T02:36:13.465Z,33.3
2018-09-08T02:37:15.892Z,33.2
2018-09-08T02:38:18.331Z,33.2
2018-09-08T02:39:20.758Z,33.1
2018-09-08T02:40:23.178Z,33.2
2018-09-08T02:41:25.618Z,33.3
2018-09-08T02:42:28.061Z,33.1
2018-09-08T02:43:30.493Z,33.1
2018-09-08T02:44:32.924Z,33.3
2018-09-08T02:45:35.358Z,33.3
2018-09-08T02:46:37.504Z,33.2
2018-09-08T02:47:39.951Z,33.2
2018-09-08T02:48:42.392Z,33.2
2018-09-08T02:49:44.877Z,33.2
2018-09-08T02:50:47.009Z,33.2
2018-09-08T02:51:49.446Z,33.2
2018-09-08T02:52:51.582Z,33.1
2018-09-08T02:53:54.014Z,33.2
2018-09-08T02:54:56.442Z,33.2
2018-09-08T02:55:58.870Z,33.2
2018-09-08T02:57:01.316Z,33.3
2018-09-08T02:58:03.745Z,33.2
2018-09-08T02:59:05.913Z,33.2
2018-09-08T03:00:08.344Z,33.1
2018-09-08T03:01:10.784Z,33.2
2018-09-08T03:02:13.235Z,33.3
2018-09-08T03:03:15.665Z,33.2
2018-09-08T03:04:18.093Z,33.2
2018-09-08T03:05:20.525Z,33.2
2018-09-08T03:06:22.966Z,33.1
2018-09-08T03:07:25.423Z,33.2
2018-09-08T03:08:27.853Z,33.1
2018-09-08T03:09:30.325Z,33
2018-09-08T03:10:32.501Z,33.1
2018-09-08T03:11:34.936Z,33.1
2018-09-08T03:12:37.361Z,33.1
2018-09-08T03:13:39.527Z,33
2018-09-08T03:14:41.996Z,33
2018-09-08T03:15:44.465Z,33.1
2018-09-08T03:16:46.963Z,33
2018-09-08T03:17:49.405Z,33
2018-09-08T03:18:51.838Z,33
2018-09-08T03:19:54.262Z,33
2018-09-08T03:20:56.706Z,33.1
2018-09-08T03:21:59.145Z,33
2018-09-08T03:23:01.572Z,33
2018-09-08T03:24:04.025Z,33
2018-09-08T03:25:06.474Z,32.8
2018-09-08T03:26:08.912Z,32.9
2018-09-08T03:27:11.335Z,32.9
2018-09-08T03:28:13.488Z,32.9
2018-09-08T03:29:15.914Z,32.9
2018-09-08T03:30:18.344Z,32.8
2018-09-08T03:31:20.775Z,32.9
2018-09-08T03:32:23.209Z,32.9
2018-09-08T03:33:25.654Z,32.8
2018-09-08T03:34:28.086Z,32.9
2018-09-08T03:35:30.510Z,33
2018-09-08T03:36:32.696Z,32.9
2018-09-08T03:37:35.140Z,32.8
2018-09-08T03:38:37.577Z,33
2018-09-08T03:39:39.752Z,32.9
2018-09-08T03:40:42.194Z,32.8
2018-09-08T03:41:44.627Z,32.7
2018-09-08T03:42:47.073Z,32.9
2018-09-08T03:43:48.969Z,32.7
2018-09-08T03:44:51.403Z,32.9
2018-09-08T03:45:53.845Z,33
2018-09-08T03:46:56.265Z,32.9
2018-09-08T03:47:58.706Z,32.7
2018-09-08T03:49:01.141Z,32.9
2018-09-08T03:50:03.573Z,32.9
2018-09-08T03:51:06.001Z,32.8
2018-09-08T03:52:08.442Z,32.7
2018-09-08T03:53:10.884Z,32.8
2018-09-08T03:54:13.315Z,32.7
2018-09-08T03:55:15.742Z,32.9
2018-09-08T03:56:18.181Z,32.8
2018-09-08T03:57:20.613Z,32.8
2018-09-08T03:58:23.045Z,32.7
2018-09-08T03:59:25.479Z,32.8
2018-09-08T04:00:27.915Z,32.9
2018-09-08T04:01:30.352Z,32.8
2018-09-08T04:02:32.790Z,32.8
2018-09-08T04:03:35.255Z,32.9
2018-09-08T04:04:37.684Z,32.7
2018-09-08T04:05:40.204Z,32.8
2018-09-08T04:06:43.009Z,32.8
2018-09-08T04:07:45.428Z,32.8
2018-09-08T04:08:47.855Z,32.7
2018-09-08T04:09:50.005Z,32.9
2018-09-08T04:10:52.434Z,32.9
2018-09-08T04:11:54.865Z,32.9
2018-09-08T04:12:57.303Z,32.8
2018-09-08T04:13:59.730Z,32.7
2018-09-08T04:15:01.898Z,32.7
2018-09-08T04:16:04.318Z,32.8
2018-09-08T04:17:06.747Z,32.8
2018-09-08T04:18:09.269Z,32.7
2018-09-08T04:19:12.020Z,32.8
2018-09-08T04:20:14.503Z,32.8
2018-09-08T04:21:16.936Z,32.7
2018-09-08T04:22:19.359Z,32.7
2018-09-08T04:23:21.803Z,32.7
2018-09-08T04:24:24.243Z,32.8
2018-09-08T04:25:26.409Z,32.8
2018-09-08T04:26:28.840Z,32.8
2018-09-08T04:27:31.014Z,32.7
2018-09-08T04:28:33.445Z,32.7
2018-09-08T04:29:36.137Z,32.6
2018-09-08T04:30:39.042Z,32.7
2018-09-08T04:31:41.486Z,32.8
2018-09-08T04:32:43.920Z,32.6
2018-09-08T04:33:46.353Z,32.8
2018-09-08T04:34:48.786Z,32.7
2018-09-08T04:35:51.210Z,32.6
2018-09-08T04:36:53.642Z,32.6
2018-09-08T04:37:56.073Z,32.6
2018-09-08T04:38:58.505Z,32.5
2018-09-08T04:40:00.665Z,32.6
2018-09-08T04:41:03.198Z,32.6
2018-09-08T04:42:06.019Z,32.6
2018-09-08T04:43:08.468Z,32.7
2018-09-08T04:44:10.901Z,32.6
2018-09-08T04:45:13.330Z,32.7
2018-09-08T04:46:15.773Z,32.6
2018-09-08T04:47:18.209Z,32.6
2018-09-08T04:48:20.373Z,32.5
2018-09-08T04:49:22.837Z,32.6
2018-09-08T04:50:25.268Z,32.6
2018-09-08T04:51:27.718Z,32.7
2018-09-08T04:52:30.141Z,32.7
2018-09-08T04:53:32.575Z,32.6
2018-09-08T04:54:35.018Z,32.7
2018-09-08T04:55:37.455Z,32.6
2018-09-08T04:56:39.889Z,32.6
2018-09-08T04:57:42.320Z,32.6
2018-09-08T04:58:44.744Z,32.7
2018-09-08T04:59:47.191Z,32.6
2018-09-08T05:00:49.627Z,32.7
2018-09-08T05:01:52.062Z,32.5
2018-09-08T05:02:54.504Z,32.7
2018-09-08T05:03:56.951Z,32.6
2018-09-08T05:04:59.379Z,32.6
2018-09-08T05:06:01.813Z,32.7
2018-09-08T05:07:04.253Z,32.5
2018-09-08T05:08:06.692Z,32.5
2018-09-08T05:09:09.483Z,32.7
2018-09-08T05:10:12.260Z,32.6
2018-09-08T05:11:14.693Z,32.6
2018-09-08T05:12:17.135Z,32.6
2018-09-08T05:13:19.598Z,32.5
2018-09-08T05:14:22.032Z,32.6
2018-09-08T05:15:24.486Z,32.6
2018-09-08T05:16:26.920Z,32.6
2018-09-08T05:17:29.086Z,32.6
2018-09-08T05:18:31.247Z,32.5
2018-09-08T05:19:33.675Z,32.5
2018-09-08T05:20:36.117Z,32.6
2018-09-08T05:21:38.548Z,32.7
2018-09-08T05:22:41.012Z,32.6
2018-09-08T05:23:43.464Z,32.5
2018-09-08T05:24:45.919Z,32.5
2018-09-08T05:25:48.355Z,32.6
2018-09-08T05:26:50.794Z,32.6
2018-09-08T05:27:53.245Z,32.5
2018-09-08T05:28:55.668Z,32.6
2018-09-08T05:29:58.105Z,32.6
2018-09-08T05:31:00.546Z,32.6
2018-09-08T05:32:02.973Z,32.5
2018-09-08T05:33:05.401Z,32.5
2018-09-08T05:34:07.574Z,32.6
2018-09-08T05:35:10.153Z,32.6
2018-09-08T05:36:12.581Z,32.5
2018-09-08T05:37:15.015Z,32.5
2018-09-08T05:38:17.466Z,32.7
2018-09-08T05:39:19.902Z,32.5
2018-09-08T05:40:22.329Z,32.6
2018-09-08T05:41:24.782Z,32.6
2018-09-08T05:42:27.213Z,32.6
2018-09-08T05:43:29.648Z,32.5
2018-09-08T05:44:32.079Z,32.6
2018-09-08T05:45:34.547Z,32.5
2018-09-08T05:46:36.967Z,32.6
2018-09-08T05:47:39.401Z,32.5
2018-09-08T05:48:41.881Z,32.5
2018-09-08T05:49:44.060Z,32.4
2018-09-08T05:50:46.499Z,32.4
2018-09-08T05:51:48.930Z,32.6
2018-09-08T05:52:51.082Z,32.6
2018-09-08T05:53:53.519Z,32.5
2018-09-08T05:54:55.964Z,32.5
2018-09-08T05:55:58.393Z,32.5
2018-09-08T05:57:00.817Z,32.5
2018-09-08T05:58:03.242Z,32.5
2018-09-08T05:59:05.686Z,32.5
2018-09-08T06:00:08.117Z,32.5
2018-09-08T06:01:10.547Z,32.3
2018-09-08T06:02:13.021Z,32.4
2018-09-08T06:03:15.445Z,32.4
2018-09-08T06:04:17.636Z,32.5
2018-09-08T06:05:20.079Z,32.5
2018-09-08T06:06:22.507Z,32.5
2018-09-08T06:07:24.930Z,32.4
2018-09-08T06:08:27.356Z,32.6
2018-09-08T06:09:29.798Z,32.5
2018-09-08T06:10:32.242Z,32.5
2018-09-08T06:11:34.672Z,32.4
2018-09-08T06:12:37.138Z,32.5
2018-09-08T06:13:39.575Z,32.5
2018-09-08T06:14:42.055Z,32.5
2018-09-08T06:15:44.483Z,32.5
2018-09-08T06:16:46.635Z,32.5
2018-09-08T06:17:49.067Z,32.6
2018-09-08T06:18:51.525Z,32.3
2018-09-08T06:19:53.967Z,32.5
2018-09-08T06:20:56.386Z,32.5
2018-09-08T06:21:58.837Z,32.4
2018-09-08T06:23:01.270Z,32.5
2018-09-08T06:24:03.717Z,32.4
2018-09-08T06:25:06.153Z,32.5
2018-09-08T06:26:08.593Z,32.4
2018-09-08T06:27:11.021Z,32.5
2018-09-08T06:28:13.455Z,32.5
2018-09-08T06:29:15.919Z,32.5
2018-09-08T06:30:18.386Z,32.5
2018-09-08T06:31:20.824Z,32.5
2018-09-08T06:32:23.249Z,32.4
2018-09-08T06:33:25.816Z,32.5
2018-09-08T06:34:28.455Z,32.6
2018-09-08T06:35:30.912Z,32.5
2018-09-08T06:36:33.411Z,32.4
2018-09-08T06:37:35.850Z,32.5
2018-09-08T06:38:37.999Z,32.5
2018-09-08T06:39:40.454Z,32.5
2018-09-08T06:40:42.588Z,32.5
2018-09-08T06:41:45.023Z,32.5
2018-09-08T06:42:47.465Z,32.6
2018-09-08T06:43:49.901Z,32.4
2018-09-08T06:44:52.480Z,32.5
2018-09-08T06:45:55.332Z,32.3
2018-09-08T06:46:57.483Z,32.4
2018-09-08T06:47:59.930Z,32.5
2018-09-08T06:49:02.357Z,32.5
2018-09-08T06:50:04.814Z,32.4
2018-09-08T06:51:07.256Z,32.5
2018-09-08T06:52:09.518Z,32.5
2018-09-08T06:53:12.106Z,32.5
2018-09-08T06:54:14.289Z,32.5
2018-09-08T06:55:16.735Z,32.5
2018-09-08T06:56:19.181Z,32.6
2018-09-08T06:57:21.627Z,32.5
2018-09-08T06:58:23.858Z,32.5
2018-09-08T06:59:26.294Z,32.5
2018-09-08T07:00:28.731Z,32.4
2018-09-08T07:01:31.164Z,32.5
2018-09-08T07:02:33.592Z,32.5
2018-09-08T07:03:36.053Z,32.5
2018-09-08T07:04:38.210Z,32.6
2018-09-08T07:05:40.711Z,32.5
2018-09-08T07:06:43.190Z,32.4
2018-09-08T07:07:45.393Z,32.5
2018-09-08T07:08:47.826Z,32.5
2018-09-08T07:09:50.255Z,32.5
2018-09-08T07:10:52.683Z,32.5
2018-09-08T07:11:55.145Z,32.4
2018-09-08T07:12:57.583Z,32.4
2018-09-08T07:14:00.013Z,32.5
2018-09-08T07:15:02.514Z,32.5
2018-09-08T07:16:05.078Z,32.4
2018-09-08T07:17:07.507Z,32.4
2018-09-08T07:18:09.976Z,32.4
2018-09-08T07:19:12.395Z,32.4
2018-09-08T07:20:14.833Z,32.5
2018-09-08T07:21:17.287Z,32.4
2018-09-08T07:22:19.714Z,32.5
2018-09-08T07:23:22.139Z,32.5
2018-09-08T07:24:24.275Z,32.5
2018-09-08T07:25:26.745Z,32.6
2018-09-08T07:26:29.185Z,32.5
2018-09-08T07:27:31.622Z,32.6
2018-09-08T07:28:33.787Z,32.5
2018-09-08T07:29:35.943Z,32.5
2018-09-08T07:30:38.097Z,32.4
2018-09-08T07:31:40.274Z,32.4
2018-09-08T07:32:42.459Z,32.4
2018-09-08T07:33:44.928Z,32.5
2018-09-08T07:34:47.415Z,32.5
2018-09-08T07:35:49.861Z,32.5
2018-09-08T07:36:52.294Z,32.5
2018-09-08T07:37:54.746Z,32.3
2018-09-08T07:38:57.236Z,32.5
2018-09-08T07:39:59.733Z,32.5
2018-09-08T07:41:02.341Z,32.4
2018-09-08T07:42:04.809Z,32.5
2018-09-08T07:43:07.249Z,32.4
2018-09-08T07:44:09.401Z,32.5
2018-09-08T07:45:11.890Z,32.4
2018-09-08T07:46:14.391Z,32.5
2018-09-08T07:47:16.818Z,32.4
2018-09-08T07:48:19.276Z,32.6
2018-09-08T07:49:21.765Z,32.4
2018-09-08T07:50:24.173Z,32.4
2018-09-08T07:51:26.324Z,32.5
2018-09-08T07:52:28.765Z,32.5
2018-09-08T07:53:31.563Z,32.3
2018-09-08T07:54:34.352Z,32.4
2018-09-08T07:55:36.795Z,32.5
2018-09-08T07:56:39.232Z,32.5
2018-09-08T07:57:41.687Z,32.4
2018-09-08T07:58:44.139Z,32.5
2018-09-08T07:59:46.572Z,32.4
2018-09-08T08:00:49.019Z,32.4
2018-09-08T08:01:51.448Z,32.5
2018-09-08T08:02:53.885Z,32.6
2018-09-08T08:03:56.345Z,32.5
2018-09-08T08:04:58.798Z,32.5
2018-09-08T08:06:00.968Z,32.4
2018-09-08T08:07:03.409Z,32.4
2018-09-08T08:08:05.582Z,32.5
2018-09-08T08:09:08.041Z,32.4
2018-09-08T08:10:10.479Z,32.5
2018-09-08T08:11:12.936Z,32.4
2018-09-08T08:12:15.415Z,32.5
2018-09-08T08:13:17.863Z,32.5
2018-09-08T08:14:20.390Z,32.4
2018-09-08T08:15:22.953Z,32.4
2018-09-08T08:16:25.407Z,32.5
2018-09-08T08:17:27.858Z,32.5
2018-09-08T08:18:30.285Z,32.5
2018-09-08T08:19:32.430Z,32.4
2018-09-08T08:20:34.857Z,32.3
2018-09-08T08:21:37.284Z,32.6
2018-09-08T08:22:39.437Z,32.4
2018-09-08T08:23:41.888Z,32.4
2018-09-08T08:24:44.317Z,32.4
2018-09-08T08:25:46.764Z,32.5
2018-09-08T08:26:49.198Z,32.5
2018-09-08T08:27:51.655Z,32.4
2018-09-08T08:28:54.088Z,32.5
2018-09-08T08:29:56.534Z,32.5
2018-09-08T08:30:59.007Z,32.5
2018-09-08T08:32:01.494Z,32.5
2018-09-08T08:33:03.939Z,32.5
2018-09-08T08:34:06.397Z,32.4
2018-09-08T08:35:08.852Z,32.5
2018-09-08T08:36:11.305Z,32.5
2018-09-08T08:37:13.973Z,32.3
2018-09-08T08:38:16.675Z,32.4
2018-09-08T08:39:19.132Z,32.3
2018-09-08T08:40:21.277Z,32.4
2018-09-08T08:41:23.757Z,32.4
2018-09-08T08:42:26.192Z,32.4
2018-09-08T08:43:28.633Z,32.3
2018-09-08T08:44:31.070Z,32.4
2018-09-08T08:45:33.497Z,32.5
2018-09-08T08:46:35.947Z,32.4
2018-09-08T08:47:38.114Z,32.5
2018-09-08T08:48:40.594Z,32.4
2018-09-08T08:49:43.102Z,32.4
2018-09-08T08:50:45.964Z,32.5
2018-09-08T08:51:48.423Z,32.3
2018-09-08T08:52:50.607Z,32.4
2018-09-08T08:53:53.065Z,32.4
2018-09-08T08:54:55.540Z,32.3
2018-09-08T08:55:57.966Z,32.4
2018-09-08T08:57:00.410Z,32.5
2018-09-08T08:58:02.851Z,32.4
2018-09-08T08:59:05.292Z,32.3
2018-09-08T09:00:07.462Z,32.5
2018-09-08T09:01:09.897Z,32.4
2018-09-08T09:02:12.345Z,32.4
2018-09-08T09:03:14.785Z,32.4
2018-09-08T09:04:17.226Z,32.5
2018-09-08T09:05:19.657Z,32.3
2018-09-08T09:06:22.079Z,32.4
2018-09-08T09:07:24.531Z,32.6
2018-09-08T09:08:28.058Z,32.4
2018-09-08T09:09:32.852Z,32.4
2018-09-08T09:10:35.283Z,32.4
2018-09-08T09:11:37.757Z,32.5
2018-09-08T09:12:41.290Z,32.5
2018-09-08T09:13:43.786Z,32.4
2018-09-08T09:14:46.246Z,32.5
2018-09-08T09:15:48.682Z,32.3
2018-09-08T09:16:51.124Z,32.4
2018-09-08T09:17:53.565Z,32.5
2018-09-08T09:18:57.092Z,32.3
2018-09-08T09:20:01.389Z,32.5
2018-09-08T09:21:03.836Z,32.5
2018-09-08T09:22:06.277Z,32.5
2018-09-08T09:23:09.182Z,32.4
2018-09-08T09:24:11.669Z,32.4
2018-09-08T09:25:14.659Z,32.3
2018-09-08T09:26:17.105Z,32.5
2018-09-08T09:27:19.550Z,32.5
2018-09-08T09:28:21.995Z,32.3
2018-09-08T09:29:24.446Z,32.5
2018-09-08T09:30:26.884Z,32.5
2018-09-08T09:31:29.317Z,32.4
2018-09-08T09:32:31.505Z,32.5
2018-09-08T09:33:33.945Z,32.4
2018-09-08T09:34:36.124Z,32.4
2018-09-08T09:35:38.554Z,32.4
2018-09-08T09:36:41.015Z,32.4
2018-09-08T09:37:43.447Z,32.4
2018-09-08T09:38:45.893Z,32.4
2018-09-08T09:39:48.327Z,32.5
2018-09-08T09:40:50.764Z,32.4
2018-09-08T09:41:53.201Z,32.5
2018-09-08T09:42:55.626Z,32.4
2018-09-08T09:43:58.120Z,32.5
2018-09-08T09:45:00.566Z,32.3
2018-09-08T09:46:02.734Z,32.6
2018-09-08T09:47:05.179Z,32.4
2018-09-08T09:48:07.626Z,32.5
2018-09-08T09:49:10.057Z,32.4
2018-09-08T09:50:12.511Z,32.5
2018-09-08T09:51:14.681Z,32.5
2018-09-08T09:52:17.126Z,32.5
2018-09-08T09:53:19.359Z,32.4
2018-09-08T09:54:21.788Z,32.3
2018-09-08T09:55:24.233Z,32.5
2018-09-08T09:56:26.668Z,32.4
2018-09-08T09:57:29.113Z,32.5
2018-09-08T09:58:31.553Z,32.5
2018-09-08T09:59:33.995Z,32.5
2018-09-08T10:00:36.458Z,32.4
2018-09-08T10:01:38.901Z,32.5
2018-09-08T10:02:41.347Z,32.4
2018-09-08T10:03:43.797Z,32.3
2018-09-08T10:04:46.248Z,32.4
2018-09-08T10:05:48.666Z,32.4
2018-09-08T10:06:51.124Z,32.5
2018-09-08T10:07:53.557Z,32.4
2018-09-08T10:08:56.000Z,32.4
2018-09-08T10:09:58.449Z,32.4
2018-09-08T10:11:00.906Z,32.4
2018-09-08T10:12:03.088Z,32.3
2018-09-08T10:13:05.871Z,32.4
2018-09-08T10:14:08.024Z,32.5
2018-09-08T10:15:10.467Z,32.4
2018-09-08T10:16:12.906Z,32.5
2018-09-08T10:17:15.366Z,32.4
2018-09-08T10:18:17.828Z,32.5
2018-09-08T10:19:20.259Z,32.5
2018-09-08T10:20:22.696Z,32.5
2018-09-08T10:21:25.169Z,32.4
2018-09-08T10:22:27.606Z,32.5
2018-09-08T10:23:30.288Z,32.5
2018-09-08T10:24:33.147Z,32.4
2018-09-08T10:25:35.596Z,32.4
2018-09-08T10:26:38.027Z,32.5
2018-09-08T10:27:40.462Z,32.4
2018-09-08T10:28:42.897Z,32.4
2018-09-08T10:29:45.068Z,32.5
2018-09-08T10:30:47.517Z,32.4
2018-09-08T10:31:51.053Z,32.4
2018-09-08T10:32:54.118Z,32.3
2018-09-08T10:33:56.568Z,32.5
2018-09-08T10:34:59.005Z,32.4
2018-09-08T10:36:01.173Z,32.4
2018-09-08T10:37:03.627Z,32.5
2018-09-08T10:38:06.064Z,32.5
2018-09-08T10:39:08.487Z,32.5
2018-09-08T10:40:11.020Z,32.4
2018-09-08T10:41:13.561Z,32.4
2018-09-08T10:42:15.992Z,32.5
2018-09-08T10:43:18.432Z,32.5
2018-09-08T10:44:20.866Z,32.4
2018-09-08T10:45:23.321Z,32.4
2018-09-08T10:46:25.759Z,32.4
2018-09-08T10:47:28.188Z,32.5
2018-09-08T10:48:30.625Z,32.4
2018-09-08T10:49:33.059Z,32.4
2018-09-08T10:50:35.491Z,32.4
2018-09-08T10:51:37.923Z,32.5
2018-09-08T10:52:40.365Z,32.4
2018-09-08T10:53:42.799Z,32.4
2018-09-08T10:54:45.229Z,32.6
2018-09-08T10:55:47.678Z,32.5
2018-09-08T10:56:50.114Z,32.5
2018-09-08T10:57:52.622Z,32.5
2018-09-08T10:58:55.057Z,32.6
2018-09-08T10:59:57.499Z,32.5
2018-09-08T11:00:59.943Z,32.4
2018-09-08T11:02:03.035Z,32.4
2018-09-08T11:03:07.025Z,32.4
2018-09-08T11:04:09.470Z,32.5
2018-09-08T11:05:11.904Z,32.5
2018-09-08T11:06:14.359Z,32.4
2018-09-08T11:07:16.787Z,32.5
2018-09-08T11:08:19.223Z,32.4
2018-09-08T11:09:21.658Z,32.4
2018-09-08T11:10:24.100Z,32.5
2018-09-08T11:11:26.557Z,32.5
2018-09-08T11:12:28.730Z,32.5
2018-09-08T11:13:31.173Z,32.4
2018-09-08T11:14:33.604Z,32.4
2018-09-08T11:15:36.045Z,32.5
2018-09-08T11:16:38.485Z,32.5
2018-09-08T11:17:40.914Z,32.5
2018-09-08T11:18:43.385Z,32.4
2018-09-08T11:19:45.917Z,32.4
2018-09-08T11:20:48.350Z,32.4
2018-09-08T11:21:50.788Z,32.4
2018-09-08T11:22:53.217Z,32.4
2018-09-08T11:23:55.658Z,32.4
2018-09-08T11:24:58.113Z,32.5
2018-09-08T11:26:00.569Z,32.4
2018-09-08T11:27:03.038Z,32.4
2018-09-08T11:28:05.481Z,32.4
2018-09-08T11:29:07.919Z,32.6
2018-09-08T11:30:10.356Z,32.5
2018-09-08T11:31:12.801Z,32.4
2018-09-08T11:32:15.258Z,32.5
2018-09-08T11:33:17.693Z,32.4
2018-09-08T11:34:20.159Z,32.4
2018-09-08T11:35:22.602Z,32.4
2018-09-08T11:36:25.050Z,32.4
2018-09-08T11:37:27.509Z,32.5
2018-09-08T11:38:30.205Z,32.4
2018-09-08T11:39:33.132Z,32.4
2018-09-08T11:40:35.574Z,32.4
2018-09-08T11:41:38.044Z,32.5
2018-09-08T11:42:40.499Z,32.5
2018-09-08T11:43:42.940Z,32.3
2018-09-08T11:44:45.483Z,32.3
2018-09-08T11:45:48.097Z,32.4
2018-09-08T11:46:50.541Z,32.3
2018-09-08T11:47:52.976Z,32.4
2018-09-08T11:48:55.410Z,32.5
2018-09-08T11:49:57.841Z,32.4
2018-09-08T11:51:00.329Z,32.4
2018-09-08T11:52:02.826Z,32.4
2018-09-08T11:53:05.402Z,32.3
2018-09-08T11:54:07.857Z,32.4
2018-09-08T11:55:10.300Z,32.6
2018-09-08T11:56:12.747Z,32.5
2018-09-08T11:57:15.274Z,32.5
2018-09-08T11:58:17.714Z,32.4
2018-09-08T11:59:19.860Z,32.4
2018-09-08T12:00:22.307Z,32.4
2018-09-08T12:01:24.766Z,32.5
2018-09-08T12:02:27.213Z,32.5
2018-09-08T12:03:29.652Z,32.5
2018-09-08T12:04:32.090Z,32.4
2018-09-08T12:05:34.513Z,32.4
2018-09-08T12:06:37.004Z,32.5
2018-09-08T12:07:39.433Z,32.6
2018-09-08T12:08:41.858Z,32.4
2018-09-08T12:09:44.290Z,32.5
2018-09-08T12:10:46.949Z,32.6
2018-09-08T12:11:48.961Z,32.5
2018-09-08T12:12:51.413Z,32.6
2018-09-08T12:13:53.964Z,32.4
2018-09-08T12:14:56.628Z,32.4
2018-09-08T12:15:59.079Z,32.4
2018-09-08T12:17:01.518Z,32.5
2018-09-08T12:18:03.663Z,32.4
2018-09-08T12:19:06.192Z,32.5
2018-09-08T12:20:08.979Z,32.5
2018-09-08T12:21:11.434Z,32.5
2018-09-08T12:22:14.033Z,32.4
2018-09-08T12:23:16.733Z,32.6
2018-09-08T12:24:19.180Z,32.4
2018-09-08T12:25:21.628Z,32.5
2018-09-08T12:26:23.514Z,32.5
2018-09-08T12:27:25.991Z,32.5
2018-09-08T12:28:28.494Z,32.5
2018-09-08T12:29:30.932Z,32.4
2018-09-08T12:30:33.607Z,32.6
2018-09-08T12:31:36.492Z,32.5
2018-09-08T12:32:38.948Z,32.6
2018-09-08T12:33:41.418Z,32.6
2018-09-08T12:34:43.600Z,32.4
2018-09-08T12:35:46.050Z,32.5
2018-09-08T12:36:47.924Z,32.5
2018-09-08T12:37:50.097Z,32.5
2018-09-08T12:38:52.759Z,32.5
2018-09-08T12:39:55.506Z,32.5
2018-09-08T12:40:57.960Z,32.5
2018-09-08T12:42:00.385Z,32.5
2018-09-08T12:43:02.856Z,32.5
2018-09-08T12:44:05.298Z,32.5
2018-09-08T12:45:07.739Z,32.5
2018-09-08T12:46:10.189Z,32.5
2018-09-08T12:47:12.626Z,32.5
2018-09-08T12:48:15.074Z,32.6
2018-09-08T12:49:17.515Z,32.5
2018-09-08T12:50:19.954Z,32.6
2018-09-08T12:51:22.402Z,32.5
2018-09-08T12:52:24.849Z,32.4
2018-09-08T12:53:27.522Z,32.5
2018-09-08T12:54:29.915Z,32.5
2018-09-08T12:55:32.362Z,32.6
2018-09-08T12:56:34.805Z,32.6
2018-09-08T12:57:37.236Z,32.5
2018-09-08T12:58:39.684Z,32.6
2018-09-08T12:59:42.120Z,32.6
2018-09-08T13:00:44.573Z,32.6
2018-09-08T13:01:47.005Z,32.6
2018-09-08T13:02:49.438Z,32.6
2018-09-08T13:03:51.885Z,32.6
2018-09-08T13:04:54.307Z,32.7
2018-09-08T13:05:56.739Z,32.5
2018-09-08T13:06:59.188Z,32.6
2018-09-08T13:08:01.640Z,32.5
2018-09-08T13:09:03.849Z,32.5
2018-09-08T13:10:06.345Z,32.5
2018-09-08T13:11:08.794Z,32.6
2018-09-08T13:12:11.254Z,32.5
2018-09-08T13:13:13.706Z,32.6
2018-09-08T13:14:16.247Z,32.6
2018-09-08T13:15:18.866Z,32.7
2018-09-08T13:16:21.307Z,32.6
2018-09-08T13:17:23.745Z,32.6
2018-09-08T13:18:26.173Z,32.6
2018-09-08T13:19:28.636Z,32.6
2018-09-08T13:20:31.085Z,32.5
2018-09-08T13:21:33.525Z,32.6
2018-09-08T13:22:35.965Z,32.7
2018-09-08T13:23:38.120Z,32.6
2018-09-08T13:24:40.545Z,32.6
2018-09-08T13:25:42.977Z,32.6
2018-09-08T13:26:45.418Z,32.7
2018-09-08T13:27:47.581Z,32.6
2018-09-08T13:28:50.029Z,32.7
2018-09-08T13:29:52.482Z,32.6
2018-09-08T13:30:54.909Z,32.5
2018-09-08T13:31:57.348Z,32.6
2018-09-08T13:32:59.816Z,32.5
2018-09-08T13:34:02.233Z,32.6
2018-09-08T13:35:04.661Z,32.5
2018-09-08T13:36:06.835Z,32.6
2018-09-08T13:37:09.279Z,32.5
2018-09-08T13:38:11.455Z,32.5
2018-09-08T13:39:13.905Z,32.4
2018-09-08T13:40:16.341Z,32.5
2018-09-08T13:41:18.780Z,32.6
2018-09-08T13:42:21.208Z,32.6
2018-09-08T13:43:23.640Z,32.4
2018-09-08T13:44:26.110Z,32.6
2018-09-08T13:45:28.530Z,32.6
2018-09-08T13:46:30.957Z,32.4
2018-09-08T13:47:33.391Z,32.4
2018-09-08T13:48:35.825Z,32.6
2018-09-08T13:49:38.267Z,32.4
2018-09-08T13:50:40.723Z,32.4
2018-09-08T13:51:43.168Z,32.5
2018-09-08T13:52:45.715Z,32.5
2018-09-08T13:53:48.320Z,32.6
2018-09-08T13:54:50.762Z,32.5